Time;durP1;ratioP1;P1;durP2;ratioP2;P2;SDS_P1;SDS_P2;PMS_P1;PMS_P2;Temp;Humidity;BMP_temperature;BMP_pressure;BME280_temperature;BME280_humidity;BME280_pressure;Samples;Min_cycle;Max_cycle;Signal;HPM_P1;HPM_P2
2023/04/05 00:01:39;;;;;;;5.43;2.38;;;2.80;67.10;;;;;;4984894;28;92416;-70
2023/04/05 00:04:06;;;;;;;5.20;2.08;;;2.80;67.10;;;;;;4966313;28;92758;-70
2023/04/05 00:06:33;;;;;;;7.60;2.30;;;2.80;67.20;;;;;;4975688;28;92316;-69
2023/04/05 00:09:00;;;;;;;5.38;2.08;;;2.80;67.50;;;;;;4971381;28;92609;-69
2023/04/05 00:11:28;;;;;;;5.28;2.28;;;2.80;67.70;;;;;;4972232;28;92821;-72
2023/04/05 00:13:55;;;;;;;5.18;2.05;;;2.70;67.70;;;;;;4984112;28;93582;-69
2023/04/05 00:16:21;;;;;;;4.65;2.30;;;2.70;68.40;;;;;;4975582;28;95254;-68
2023/04/05 00:18:53;;;;;;;10.32;2.22;;;2.70;69.00;;;;;;4976604;28;92451;-70
2023/04/05 00:21:20;;;;;;;6.38;2.58;;;2.70;69.00;;;;;;4978823;28;92082;-70
2023/04/05 00:23:47;;;;;;;5.88;2.08;;;2.70;68.60;;;;;;4985773;28;93208;-71
2023/04/05 00:26:13;;;;;;;6.22;2.58;;;2.60;68.90;;;;;;4983651;28;92508;-70
2023/04/05 00:28:39;;;;;;;6.18;2.53;;;2.60;68.90;;;;;;4976067;28;92563;-71
2023/04/05 00:31:05;;;;;;;6.60;1.90;;;2.60;68.90;;;;;;4976820;28;91859;-70
2023/04/05 00:33:31;;;;;;;10.75;2.20;;;2.60;68.80;;;;;;4965222;28;93319;-69
2023/04/05 00:35:56;;;;;;;6.72;2.72;;;2.60;68.80;;;;;;4991976;28;92777;-69
2023/04/05 00:38:22;;;;;;;5.80;2.28;;;2.60;69.20;;;;;;4962117;28;93334;-69
2023/04/05 00:40:48;;;;;;;8.90;2.17;;;2.60;69.00;;;;;;4977123;28;92599;-69
2023/04/05 00:43:14;;;;;;;7.10;2.42;;;2.60;69.30;;;;;;4975375;28;92846;-71
2023/04/05 00:45:41;;;;;;;6.03;2.28;;;2.60;69.40;;;;;;4974000;28;92331;-70
2023/04/05 00:48:07;;;;;;;6.70;2.58;;;2.60;69.00;;;;;;4973132;28;92415;-70
2023/04/05 00:50:33;;;;;;;5.32;2.28;;;2.60;69.20;;;;;;4975563;28;92479;-71
2023/04/05 00:52:59;;;;;;;6.60;2.70;;;2.60;69.10;;;;;;4989027;28;93342;-71
2023/04/05 00:55:26;;;;;;;5.95;2.35;;;2.60;69.10;;;;;;4975065;28;93535;-71
2023/04/05 00:57:54;;;;;;;6.30;2.42;;;2.60;69.20;;;;;;4975769;28;92543;-71
2023/04/05 01:00:21;;;;;;;6.85;2.17;;;2.60;69.80;;;;;;4968193;28;92767;-71
2023/04/05 01:02:57;;;;;;;4.88;2.35;;;2.60;69.70;;;;;;4974833;28;93577;-71
2023/04/05 01:05:43;;;;;;;5.28;2.33;;;2.50;69.40;;;;;;4974474;28;96018;-71
2023/04/05 01:08:27;;;;;;;6.45;2.47;;;2.50;69.70;;;;;;4975622;28;92771;-71
2023/04/05 01:11:00;;;;;;;6.65;2.58;;;2.50;70.10;;;;;;4971176;28;92435;-71
2023/04/05 01:13:27;;;;;;;4.93;1.90;;;2.50;69.60;;;;;;4974528;28;92597;-71
2023/04/05 01:15:53;;;;;;;5.90;2.40;;;2.50;69.40;;;;;;4973667;28;92907;-70
2023/04/05 01:18:20;;;;;;;5.20;2.17;;;2.50;69.40;;;;;;4975630;28;92938;-71
2023/04/05 01:20:55;;;;;;;6.32;2.58;;;2.50;69.70;;;;;;4974372;28;91820;-71
2023/04/05 01:23:44;;;;;;;6.43;2.50;;;2.50;69.40;;;;;;4967052;28;93128;-70
2023/04/05 01:26:31;;;;;;;6.60;2.22;;;2.50;69.50;;;;;;4965373;28;92098;-70
2023/04/05 01:29:16;;;;;;;7.03;2.70;;;2.50;69.50;;;;;;4968325;28;93357;-70
2023/04/05 01:31:48;;;;;;;5.53;2.28;;;2.50;69.60;;;;;;4975275;28;92345;-71
2023/04/05 01:34:53;;;;;;;7.15;2.42;;;2.50;70.10;;;;;;4961899;28;93246;-72
2023/04/05 01:37:25;;;;;;;6.97;2.50;;;2.40;70.60;;;;;;4970868;28;92906;-69
2023/04/05 01:39:50;;;;;;;7.25;2.53;;;2.40;70.30;;;;;;4987533;28;92537;-70
2023/04/05 01:42:25;;;;;;;6.38;2.30;;;2.40;70.40;;;;;;4976144;28;92739;-69
2023/04/05 01:44:52;;;;;;;5.47;1.90;;;2.40;70.20;;;;;;4972814;28;92712;-69
2023/04/05 01:47:19;;;;;;;5.97;2.58;;;2.40;70.50;;;;;;4968151;28;92959;-69
2023/04/05 01:49:44;;;;;;;6.15;2.50;;;2.40;70.60;;;;;;4981942;28;93929;-69
2023/04/05 01:52:10;;;;;;;5.28;2.20;;;2.30;70.60;;;;;;4978751;28;92467;-69
2023/04/05 01:54:36;;;;;;;5.93;2.80;;;2.30;70.80;;;;;;4978027;28;94472;-71
2023/04/05 01:57:02;;;;;;;4.32;2.13;;;2.30;71.00;;;;;;4984889;28;94347;-71
2023/04/05 01:59:27;;;;;;;4.22;2.22;;;2.20;71.20;;;;;;4982321;28;92178;-68
2023/04/05 02:01:53;;;;;;;7.25;2.42;;;2.20;71.30;;;;;;4979071;28;92596;-69
2023/04/05 02:04:19;;;;;;;6.43;2.22;;;2.20;72.00;;;;;;4974493;28;92739;-69
2023/04/05 02:06:44;;;;;;;4.95;2.22;;;2.20;71.80;;;;;;4997836;28;92571;-68
2023/04/05 02:09:10;;;;;;;5.00;2.08;;;2.10;71.40;;;;;;4972188;28;93510;-69
2023/04/05 02:11:36;;;;;;;6.85;2.42;;;2.20;71.80;;;;;;4979441;28;91577;-69
2023/04/05 02:14:02;;;;;;;5.88;2.53;;;2.10;70.90;;;;;;4977600;28;92126;-69
2023/04/05 02:16:31;;;;;;;8.15;2.33;;;2.10;70.90;;;;;;4996554;28;92334;-69
2023/04/05 02:18:58;;;;;;;6.80;2.05;;;2.10;71.00;;;;;;4977568;28;93481;-69
2023/04/05 02:21:27;;;;;;;6.28;2.33;;;2.10;71.00;;;;;;4983308;28;92358;-71
2023/04/05 02:23:53;;;;;;;6.43;2.53;;;2.10;70.80;;;;;;4997049;28;93282;-72
2023/04/05 02:26:20;;;;;;;6.95;2.40;;;2.10;70.80;;;;;;4997602;28;92366;-69
2023/04/05 02:28:46;;;;;;;5.72;2.30;;;2.00;71.00;;;;;;4969942;28;92723;-70
2023/04/05 02:31:12;;;;;;;6.43;2.25;;;2.00;71.20;;;;;;4977832;28;92168;-70
2023/04/05 02:33:39;;;;;;;5.38;2.45;;;2.00;70.90;;;;;;4977752;28;93208;-70
2023/04/05 02:36:06;;;;;;;4.55;2.22;;;2.00;71.40;;;;;;4975159;28;92855;-69
2023/04/05 02:38:32;;;;;;;6.30;2.13;;;1.90;72.00;;;;;;4965400;28;92877;-70
2023/04/05 02:40:58;;;;;;;9.80;2.45;;;1.80;72.50;;;;;;4980289;28;92634;-71
2023/04/05 02:43:24;;;;;;;5.55;2.33;;;1.80;72.30;;;;;;4974581;28;95572;-70
2023/04/05 02:45:51;;;;;;;6.55;2.17;;;1.80;72.30;;;;;;4977993;28;93856;-69
2023/04/05 02:48:16;;;;;;;6.55;2.47;;;1.80;72.00;;;;;;4975074;28;92466;-69
2023/04/05 02:50:50;;;;;;;5.30;2.60;;;1.80;72.50;;;;;;4977616;28;92675;-69
2023/04/05 02:53:18;;;;;;;6.20;2.40;;;1.80;72.50;;;;;;4978871;28;92932;-70
2023/04/05 02:56:02;;;;;;;5.30;2.47;;;1.70;72.40;;;;;;4985358;28;92201;-70
2023/04/05 02:58:28;;;;;;;6.65;2.70;;;1.70;72.50;;;;;;4990149;28;93032;-70
2023/04/05 03:00:53;;;;;;;5.93;2.30;;;1.70;73.00;;;;;;4990125;28;91310;-70
2023/04/05 03:03:20;;;;;;;8.65;2.63;;;1.60;73.00;;;;;;4996758;28;93175;-71
2023/04/05 03:05:47;;;;;;;8.50;2.53;;;1.60;73.30;;;;;;4992819;28;92903;-71
2023/04/05 03:08:18;;;;;;;6.75;3.08;;;1.50;73.10;;;;;;4972402;28;94266;-71
2023/04/05 03:10:47;;;;;;;7.88;2.25;;;1.50;72.50;;;;;;4962744;28;92157;-69
2023/04/05 03:13:16;;;;;;;5.30;2.13;;;1.40;72.80;;;;;;4970392;28;93762;-69
2023/04/05 03:15:41;;;;;;;5.72;2.45;;;1.40;72.40;;;;;;4984606;28;94042;-71
2023/04/05 03:18:08;;;;;;;6.43;2.58;;;1.30;71.90;;;;;;4984689;28;92639;-69
2023/04/05 03:20:38;;;;;;;6.28;2.00;;;1.30;72.60;;;;;;4971679;28;92487;-69
2023/04/05 03:23:06;;;;;;;4.97;2.20;;;1.30;72.30;;;;;;4996524;28;93148;-71
2023/04/05 03:25:34;;;;;;;6.28;2.10;;;1.20;72.60;;;;;;4997212;28;92734;-71
2023/04/05 03:28:00;;;;;;;5.07;2.25;;;1.20;72.80;;;;;;4978425;28;92403;-70
2023/04/05 03:30:25;;;;;;;9.20;2.83;;;1.20;73.00;;;;;;4982246;28;92107;-70
2023/04/05 03:32:51;;;;;;;6.50;2.53;;;1.20;73.00;;;;;;4983929;28;94252;-71
2023/04/05 03:35:19;;;;;;;5.97;2.53;;;1.20;73.30;;;;;;4975093;28;92302;-71
2023/04/05 03:37:45;;;;;;;5.43;2.47;;;1.10;73.50;;;;;;4971779;28;92473;-70
2023/04/05 03:40:11;;;;;;;7.32;2.33;;;1.10;73.90;;;;;;4966955;28;93605;-70
2023/04/05 03:42:37;;;;;;;6.40;2.63;;;1.10;73.90;;;;;;4968765;28;93195;-71
2023/04/05 03:45:04;;;;;;;5.55;2.40;;;1.10;73.80;;;;;;4964109;28;92607;-71
2023/04/05 03:47:30;;;;;;;5.80;2.15;;;1.00;74.40;;;;;;4969624;28;92432;-70
2023/04/05 03:49:56;;;;;;;5.30;2.30;;;1.00;74.50;;;;;;4974033;28;91677;-70
2023/04/05 03:52:22;;;;;;;6.70;2.88;;;1.00;74.70;;;;;;4984096;28;92631;-70
2023/04/05 03:54:47;;;;;;;6.07;2.67;;;1.00;74.90;;;;;;4982689;28;92463;-70
2023/04/05 03:57:13;;;;;;;7.63;2.90;;;0.90;75.70;;;;;;4978604;28;94157;-70
2023/04/05 03:59:39;;;;;;;4.95;2.45;;;0.90;76.40;;;;;;4981779;28;92368;-70
2023/04/05 04:02:05;;;;;;;4.88;2.28;;;0.90;76.20;;;;;;4981719;28;93035;-71
2023/04/05 04:04:30;;;;;;;7.07;2.38;;;0.80;76.40;;;;;;4977828;28;92971;-70
2023/04/05 04:06:56;;;;;;;7.88;2.92;;;0.80;76.00;;;;;;4978700;28;94025;-70
2023/04/05 04:09:22;;;;;;;6.30;2.45;;;0.80;76.10;;;;;;4968497;28;94042;-71
2023/04/05 04:11:48;;;;;;;6.50;2.58;;;0.80;76.40;;;;;;4974895;28;92987;-71
2023/04/05 04:14:14;;;;;;;7.03;2.75;;;0.80;77.00;;;;;;4976507;28;92369;-70
2023/04/05 04:16:39;;;;;;;6.10;2.55;;;0.80;76.80;;;;;;4976629;28;92882;-70
2023/04/05 04:19:05;;;;;;;7.95;2.67;;;0.80;76.70;;;;;;4974892;28;92387;-70
2023/04/05 04:21:31;;;;;;;9.18;3.03;;;0.70;76.90;;;;;;4975616;28;93955;-70
2023/04/05 04:23:59;;;;;;;8.43;3.03;;;0.70;78.10;;;;;;4975963;28;93037;-70
2023/04/05 04:26:28;;;;;;;7.65;2.85;;;0.70;77.60;;;;;;4976618;28;92545;-70
2023/04/05 04:28:56;;;;;;;9.52;3.10;;;0.70;77.20;;;;;;4969832;28;92679;-71
2023/04/05 04:31:22;;;;;;;7.40;3.00;;;0.70;77.00;;;;;;4974175;28;93213;-70
2023/04/05 04:33:50;;;;;;;6.78;2.80;;;0.60;77.20;;;;;;4966347;28;92398;-70
2023/04/05 04:36:16;;;;;;;7.03;3.20;;;0.60;77.60;;;;;;4966601;28;92097;-70
2023/04/05 04:38:43;;;;;;;8.02;3.08;;;0.60;77.50;;;;;;4971942;28;91813;-70
2023/04/05 04:41:12;;;;;;;7.15;2.60;;;0.60;77.40;;;;;;4978217;28;93202;-70
2023/04/05 04:43:41;;;;;;;7.13;3.17;;;0.60;77.30;;;;;;4976161;28;92986;-69
2023/04/05 04:46:10;;;;;;;6.75;2.50;;;0.60;77.90;;;;;;4975312;28;93549;-69
2023/04/05 04:48:36;;;;;;;7.25;2.90;;;0.60;77.60;;;;;;4975874;28;92442;-69
2023/04/05 04:51:03;;;;;;;7.80;3.03;;;0.60;77.60;;;;;;4975584;28;93598;-70
2023/04/05 04:53:28;;;;;;;9.13;3.45;;;0.60;77.60;;;;;;4973694;28;92574;-69
2023/04/05 04:55:56;;;;;;;7.68;3.10;;;0.60;77.40;;;;;;4976461;28;92452;-70
2023/04/05 04:58:21;;;;;;;6.93;2.80;;;0.60;77.80;;;;;;4975163;28;92601;-70
2023/04/05 05:00:47;;;;;;;7.82;3.55;;;0.60;77.70;;;;;;4975127;28;93697;-70
2023/04/05 05:03:13;;;;;;;8.07;3.10;;;0.70;77.90;;;;;;4976031;28;92872;-70
2023/04/05 05:05:43;;;;;;;8.27;3.05;;;0.70;77.60;;;;;;4974416;28;92556;-70
2023/04/05 05:08:08;;;;;;;10.55;3.45;;;0.70;77.50;;;;;;4973716;28;93200;-69
2023/04/05 05:10:34;;;;;;;11.73;3.40;;;0.80;77.90;;;;;;4961805;28;94670;-70
2023/04/05 05:13:00;;;;;;;8.63;3.38;;;0.80;78.00;;;;;;4975021;28;93174;-69
2023/04/05 05:15:26;;;;;;;10.15;3.58;;;1.00;78.20;;;;;;4975747;28;92546;-69
2023/04/05 05:17:53;;;;;;;7.13;3.05;;;1.40;77.10;;;;;;4974049;28;92315;-70
2023/04/05 05:20:20;;;;;;;8.90;3.25;;;1.90;75.60;;;;;;4979063;28;93747;-71
2023/04/05 05:22:45;;;;;;;10.40;3.40;;;2.40;73.50;;;;;;4961730;28;92351;-71
2023/04/05 05:25:11;;;;;;;9.38;3.22;;;2.80;72.10;;;;;;4961720;28;94108;-71
2023/04/05 05:27:37;;;;;;;7.95;3.33;;;3.50;70.70;;;;;;4970086;28;91797;-70
2023/04/05 05:30:04;;;;;;;8.30;3.90;;;4.20;68.30;;;;;;4966888;28;92654;-71
2023/04/05 05:32:30;;;;;;;11.90;3.88;;;4.70;66.40;;;;;;4962747;28;92890;-69
2023/04/05 05:34:55;;;;;;;16.30;4.22;;;5.30;64.00;;;;;;4971228;28;93361;-69
2023/04/05 05:37:29;;;;;;;13.00;4.53;;;5.70;61.30;;;;;;4963148;28;92225;-69
2023/04/05 05:39:54;;;;;;;15.63;5.28;;;6.20;61.20;;;;;;4958550;28;92716;-69
2023/04/05 05:42:20;;;;;;;23.90;5.78;;;7.20;59.50;;;;;;4964565;28;92750;-70
2023/04/05 05:44:46;;;;;;;19.38;6.80;;;8.00;56.00;;;;;;4970492;28;94196;-70
2023/04/05 05:47:11;;;;;;;27.55;9.77;;;7.80;55.40;;;;;;4970014;28;92623;-70
2023/04/05 05:49:37;;;;;;;30.73;9.73;;;7.80;55.40;;;;;;4980869;28;93809;-70
2023/04/05 05:52:03;;;;;;;21.00;6.45;;;8.20;55.30;;;;;;4976741;28;93091;-70
2023/04/05 05:54:29;;;;;;;25.15;11.50;;;8.50;54.50;;;;;;4969071;28;93198;-70
2023/04/05 05:56:54;;;;;;;23.50;10.60;;;8.90;54.40;;;;;;4967726;28;92488;-71
2023/04/05 05:59:20;;;;;;;27.45;10.63;;;9.60;52.50;;;;;;4960333;28;94026;-70
2023/04/05 06:01:46;;;;;;;25.50;10.65;;;9.80;50.30;;;;;;4967583;28;93176;-70
2023/04/05 06:04:12;;;;;;;26.42;13.55;;;9.90;50.30;;;;;;4957163;28;92362;-70
2023/04/05 06:06:39;;;;;;;27.90;14.70;;;10.80;50.40;;;;;;4960843;28;94648;-70
2023/04/05 06:09:05;;;;;;;28.92;15.18;;;12.20;47.50;;;;;;4964796;28;93770;-71
2023/04/05 06:11:31;;;;;;;26.60;12.50;;;13.00;44.50;;;;;;4961106;28;94690;-69
2023/04/05 06:13:56;;;;;;;21.88;11.07;;;13.70;42.90;;;;;;4972625;28;92444;-71
2023/04/05 06:16:22;;;;;;;10.20;6.45;;;14.60;41.70;;;;;;4963048;28;91521;-70
2023/04/05 06:18:48;;;;;;;13.05;6.25;;;15.30;39.90;;;;;;4965102;28;93252;-70
2023/04/05 06:21:14;;;;;;;14.52;4.47;;;16.00;39.40;;;;;;4970795;28;92419;-70
2023/04/05 06:23:41;;;;;;;10.23;2.78;;;16.60;37.30;;;;;;4966419;28;93563;-71
2023/04/05 06:26:28;;;;;;;8.18;2.35;;;15.40;36.40;;;;;;4964537;28;94349;-71
2023/04/05 06:28:55;;;;;;;7.20;2.38;;;15.10;38.10;;;;;;4968826;28;93508;-70
2023/04/05 06:31:26;;;;;;;7.47;2.45;;;15.30;36.70;;;;;;4976290;28;92725;-70
2023/04/05 06:33:51;;;;;;;6.03;2.55;;;15.90;36.40;;;;;;4976106;28;92563;-71
2023/04/05 06:36:17;;;;;;;7.30;2.83;;;16.20;36.00;;;;;;4970499;28;92602;-70
2023/04/05 06:38:43;;;;;;;14.95;2.78;;;16.40;35.40;;;;;;4974696;28;93119;-70
2023/04/05 06:41:08;;;;;;;13.23;2.55;;;16.50;34.50;;;;;;4977997;28;92842;-72
2023/04/05 06:43:34;;;;;;;10.90;2.80;;;17.60;35.10;;;;;;4968701;28;92639;-71
2023/04/05 06:46:00;;;;;;;10.95;2.72;;;17.70;34.40;;;;;;4970068;28;92655;-71
2023/04/05 06:48:28;;;;;;;9.82;2.42;;;19.00;33.40;;;;;;4968578;28;94584;-71
2023/04/05 06:51:01;;;;;;;10.93;2.28;;;19.20;32.20;;;;;;4969395;28;94049;-71
2023/04/05 06:53:28;;;;;;;5.63;2.72;;;20.00;31.70;;;;;;4974562;28;92566;-71
2023/04/05 06:55:55;;;;;;;8.10;2.80;;;19.50;34.10;;;;;;4974501;28;92608;-71
2023/04/05 06:58:22;;;;;;;6.53;2.38;;;20.00;31.90;;;;;;4988411;28;94119;-71
2023/04/05 07:00:48;;;;;;;6.57;2.72;;;20.80;31.40;;;;;;4978820;28;93723;-71
2023/04/05 07:03:14;;;;;;;5.75;3.15;;;21.40;31.90;;;;;;4973632;28;94481;-72
2023/04/05 07:05:40;;;;;;;8.43;3.20;;;22.80;31.30;;;;;;4973773;28;91856;-72
2023/04/05 07:08:05;;;;;;;6.18;2.92;;;23.60;30.00;;;;;;4965547;28;92961;-71
2023/04/05 07:10:31;;;;;;;6.60;3.05;;;24.20;29.50;;;;;;4966851;28;93365;-71
2023/04/05 07:12:56;;;;;;;5.25;2.95;;;24.10;28.50;;;;;;4974241;28;93549;-72
2023/04/05 07:15:22;;;;;;;9.23;3.28;;;24.30;29.10;;;;;;4971958;28;92318;-71
2023/04/05 07:17:48;;;;;;;5.30;3.65;;;24.50;29.40;;;;;;4963856;28;92647;-71
2023/04/05 07:20:15;;;;;;;6.93;3.42;;;24.70;28.70;;;;;;4971207;28;92512;-71
2023/04/05 07:22:40;;;;;;;8.35;3.97;;;25.30;28.60;;;;;;4969838;28;92525;-70
2023/04/05 07:25:08;;;;;;;5.55;4.13;;;25.80;28.40;;;;;;4973099;28;92513;-71
2023/04/05 07:27:34;;;;;;;4.75;3.50;;;26.30;28.10;;;;;;4967339;28;93271;-71
2023/04/05 07:30:00;;;;;;;6.57;3.25;;;25.90;27.80;;;;;;4969049;28;92262;-71
2023/04/05 07:32:25;;;;;;;7.20;3.60;;;25.90;28.20;;;;;;4972122;28;92498;-71
2023/04/05 07:34:51;;;;;;;6.88;3.05;;;26.30;28.30;;;;;;4975456;28;92505;-70
2023/04/05 07:37:19;;;;;;;5.90;3.42;;;26.60;27.60;;;;;;4977267;28;93961;-71
2023/04/05 07:39:45;;;;;;;4.90;3.17;;;26.80;27.60;;;;;;4975520;28;95810;-70
2023/04/05 07:42:10;;;;;;;6.57;3.58;;;26.90;27.70;;;;;;4973917;28;92592;-71
2023/04/05 07:44:36;;;;;;;6.75;3.85;;;27.50;28.00;;;;;;4966242;28;92724;-71
2023/04/05 07:47:02;;;;;;;5.55;3.72;;;28.10;26.80;;;;;;4970376;28;92743;-70
2023/04/05 07:49:29;;;;;;;7.15;3.65;;;28.00;27.60;;;;;;4966745;28;95245;-70
2023/04/05 07:51:55;;;;;;;5.75;3.88;;;28.50;27.20;;;;;;4959753;28;92356;-71
2023/04/05 07:54:21;;;;;;;6.30;3.97;;;28.40;27.20;;;;;;4978040;28;91763;-71
2023/04/05 07:56:48;;;;;;;5.43;3.90;;;28.20;27.30;;;;;;4968552;28;93591;-72
2023/04/05 07:59:14;;;;;;;6.90;3.95;;;28.70;27.40;;;;;;4983101;28;92380;-71
2023/04/05 08:01:39;;;;;;;5.22;3.53;;;29.30;26.60;;;;;;4976171;28;93421;-72
2023/04/05 08:04:05;;;;;;;7.00;3.35;;;29.30;26.80;;;;;;4976668;28;92585;-72
2023/04/05 08:06:31;;;;;;;5.18;3.65;;;29.60;26.50;;;;;;4981476;28;92844;-72
2023/04/05 08:08:56;;;;;;;5.28;3.17;;;29.80;26.40;;;;;;4977973;28;92861;-72
2023/04/05 08:11:22;;;;;;;4.93;3.42;;;29.90;26.60;;;;;;4976691;28;92040;-72
2023/04/05 08:13:48;;;;;;;6.20;4.10;;;30.00;26.00;;;;;;4976767;28;92428;-72
2023/04/05 08:16:13;;;;;;;5.07;3.33;;;29.80;26.50;;;;;;4972241;28;93199;-72
2023/04/05 08:18:39;;;;;;;5.55;3.88;;;29.60;27.50;;;;;;4975798;28;92269;-69
2023/04/05 08:21:05;;;;;;;5.30;3.17;;;30.00;26.60;;;;;;4976361;28;92400;-72
2023/04/05 08:23:31;;;;;;;5.10;3.92;;;30.10;27.70;;;;;;4970354;28;92653;-72
2023/04/05 08:25:57;;;;;;;5.60;3.38;;;30.10;26.60;;;;;;4973420;28;94692;-72
2023/04/05 08:28:22;;;;;;;6.93;3.47;;;29.50;27.40;;;;;;4974334;28;93147;-72
2023/04/05 08:30:56;;;;;;;6.30;3.33;;;29.90;27.00;;;;;;4996450;28;92424;-72
2023/04/05 08:33:22;;;;;;;6.22;3.45;;;29.90;26.60;;;;;;4988815;28;92691;-72
2023/04/05 08:35:48;;;;;;;5.70;3.30;;;30.00;27.20;;;;;;4975509;28;92910;-72
2023/04/05 08:38:14;;;;;;;5.82;4.28;;;30.30;27.30;;;;;;4977139;28;92822;-72
2023/04/05 08:40:44;;;;;;;5.88;3.83;;;31.20;28.10;;;;;;4975648;28;93639;-72
2023/04/05 08:43:32;;;;;;;4.63;3.25;;;31.80;26.40;;;;;;4966477;28;91947;-72
2023/04/05 08:45:59;;;;;;;;;;;31.40;26.20;;;;;;4976274;28;93529;-72
2023/04/05 08:48:29;;;;;;;5.57;4.13;;;31.00;26.10;;;;;;4974733;28;92519;-72
2023/04/05 08:50:55;;;;;;;5.05;3.28;;;31.10;27.10;;;;;;4972766;28;94021;-71
2023/04/05 08:53:21;;;;;;;5.90;3.72;;;30.20;26.20;;;;;;4989900;28;92374;-72
2023/04/05 08:55:53;;;;;;;5.13;4.47;;;31.00;26.70;;;;;;4985038;28;93369;-71
2023/04/05 08:58:21;;;;;;;5.13;3.58;;;31.20;26.50;;;;;;4975514;28;93004;-72
2023/04/05 09:00:49;;;;;;;6.72;4.88;;;31.60;26.50;;;;;;4984431;28;92601;-72
2023/04/05 09:03:17;;;;;;;5.40;3.85;;;32.00;25.90;;;;;;4974710;28;92430;-72
2023/04/05 09:05:48;;;;;;;6.57;4.10;;;31.90;25.60;;;;;;4977802;28;93252;-72
2023/04/05 09:08:15;;;;;;;5.43;4.38;;;31.70;25.40;;;;;;4972018;28;91835;-72
2023/04/05 09:10:41;;;;;;;6.57;4.32;;;31.10;25.00;;;;;;4967817;28;92528;-72
2023/04/05 09:13:07;;;;;;;4.63;3.60;;;32.30;25.60;;;;;;4963981;28;92395;-72
2023/04/05 09:15:37;;;;;;;4.70;2.90;;;32.50;26.90;;;;;;4974939;28;95280;-72
2023/04/05 09:18:03;;;;;;;4.38;3.67;;;32.90;25.50;;;;;;4975518;28;94108;-72
2023/04/05 09:20:29;;;;;;;6.78;4.15;;;32.50;24.80;;;;;;4975690;28;92551;-71
2023/04/05 09:22:56;;;;;;;5.43;3.55;;;32.10;25.40;;;;;;4974548;28;92471;-72
2023/04/05 09:25:38;;;;;;;6.13;4.25;;;32.40;25.80;;;;;;4970747;28;93661;-71
2023/04/05 09:28:08;;;;;;;5.38;4.53;;;31.80;24.70;;;;;;4974594;28;92730;-72
2023/04/05 09:30:36;;;;;;;6.32;3.63;;;31.50;25.80;;;;;;4974102;28;92310;-71
2023/04/05 09:33:06;;;;;;;6.15;4.10;;;31.80;25.80;;;;;;4987521;28;91325;-72
2023/04/05 09:35:32;;;;;;;5.47;4.35;;;31.20;24.70;;;;;;4975475;28;93221;-71
2023/04/05 09:37:59;;;;;;;6.05;4.22;;;31.90;25.00;;;;;;4982378;28;92971;-72
2023/04/05 09:40:50;;;;;;;4.95;3.67;;;31.70;25.10;;;;;;4994146;28;93372;-72
2023/04/05 09:43:36;;;;;;;5.40;3.72;;;32.30;24.50;;;;;;4969911;28;94206;-72
2023/04/05 09:46:02;;;;;;;5.28;3.75;;;32.60;24.80;;;;;;4974304;28;92762;-71
2023/04/05 09:48:46;;;;;;;6.80;3.95;;;32.10;24.70;;;;;;4974640;28;93437;-71
2023/04/05 09:51:17;;;;;;;7.55;4.50;;;32.00;25.80;;;;;;4975126;28;92159;-72
2023/04/05 09:53:59;;;;;;;4.70;3.13;;;32.00;25.10;;;;;;4979346;28;92657;-71
2023/04/05 09:56:26;;;;;;;7.05;4.85;;;32.00;24.90;;;;;;4994074;28;94010;-71
2023/04/05 09:58:52;;;;;;;6.07;4.22;;;31.90;25.50;;;;;;4983463;28;92249;-72
2023/04/05 10:01:21;;;;;;;5.00;3.97;;;31.70;24.80;;;;;;4975268;28;92641;-71
2023/04/05 10:03:48;;;;;;;5.60;4.57;;;31.20;26.40;;;;;;4975399;28;92244;-71
2023/04/05 10:06:15;;;;;;;5.40;4.07;;;31.30;25.60;;;;;;4973791;28;94157;-71
2023/04/05 10:08:41;;;;;;;5.72;3.75;;;31.20;24.30;;;;;;4977895;28;94014;-72
2023/04/05 10:11:09;;;;;;;5.40;3.53;;;30.90;25.50;;;;;;4969417;28;92524;-72
2023/04/05 10:13:36;;;;;;;5.60;4.28;;;30.60;26.00;;;;;;4973440;28;92276;-71
2023/04/05 10:16:08;;;;;;;5.32;3.83;;;30.10;25.00;;;;;;4982408;28;92776;-71
2023/04/05 10:18:45;;;;;;;4.57;3.53;;;29.00;25.50;;;;;;4976956;28;92841;-71
2023/04/05 10:21:13;;;;;;;5.60;3.42;;;27.30;26.10;;;;;;4977481;28;93257;-71
2023/04/05 10:23:43;;;;;;;5.78;3.10;;;25.70;26.90;;;;;;4974005;28;91376;-71
2023/04/05 10:26:30;;;;;;;4.80;3.17;;;23.50;29.10;;;;;;4971681;28;92746;-70
2023/04/05 10:29:05;;;;;;;6.25;3.33;;;21.70;30.50;;;;;;4980095;28;92832;-71
2023/04/05 10:31:50;;;;;;;5.80;3.28;;;20.10;32.80;;;;;;4981012;28;93494;-70
2023/04/05 10:34:38;;;;;;;6.05;2.88;;;18.90;35.50;;;;;;4962987;28;92867;-69
2023/04/05 10:37:04;;;;;;;5.60;3.10;;;18.00;35.30;;;;;;4980216;28;92745;-70
2023/04/05 10:39:35;;;;;;;5.30;2.70;;;17.30;38.30;;;;;;4976106;28;92771;-71
2023/04/05 10:42:12;;;;;;;5.50;3.50;;;16.90;38.10;;;;;;4968129;28;93965;-70
2023/04/05 10:44:39;;;;;;;4.70;2.25;;;16.20;38.70;;;;;;4970786;28;95450;-70
2023/04/05 10:47:10;;;;;;;8.02;2.92;;;15.50;42.50;;;;;;4981970;28;93100;-70
2023/04/05 10:49:45;;;;;;;6.05;3.13;;;15.10;40.50;;;;;;4968089;28;92789;-70
2023/04/05 10:52:11;;;;;;;5.30;2.90;;;15.00;40.30;;;;;;4981748;28;92457;-71
2023/04/05 10:54:37;;;;;;;8.98;3.00;;;14.90;40.60;;;;;;4963800;28;93578;-71
2023/04/05 10:57:06;;;;;;;6.78;2.80;;;14.70;39.90;;;;;;4966255;28;94857;-71
2023/04/05 10:59:33;;;;;;;5.55;2.50;;;14.60;42.10;;;;;;4966283;28;93330;-70
2023/04/05 11:01:59;;;;;;;4.93;2.40;;;14.40;44.20;;;;;;4973965;28;92542;-70
2023/04/05 11:04:25;;;;;;;7.20;2.83;;;14.10;41.00;;;;;;4973827;28;93001;-70
2023/04/05 11:07:12;;;;;;;5.10;2.63;;;13.50;41.20;;;;;;4966619;28;93277;-71
2023/04/05 11:09:39;;;;;;;7.72;2.42;;;13.40;44.20;;;;;;4967074;28;93997;-70
2023/04/05 11:12:05;;;;;;;5.75;2.35;;;13.40;44.60;;;;;;4973253;28;92514;-70
2023/04/05 11:14:35;;;;;;;6.82;2.67;;;13.40;42.90;;;;;;4967994;28;92037;-70
2023/04/05 11:17:00;;;;;;;;;;;13.40;41.80;;;;;;4976761;28;92850;-70
2023/04/05 11:19:44;;;;;;;7.07;2.55;;;13.40;42.50;;;;;;4967912;28;92989;-70
2023/04/05 11:22:15;;;;;;;7.40;2.13;;;13.50;41.80;;;;;;4969837;28;93456;-71
2023/04/05 11:24:57;;;;;;;5.13;2.03;;;13.50;39.30;;;;;;4970406;28;92387;-71
2023/04/05 11:27:32;;;;;;;4.43;2.05;;;13.40;39.70;;;;;;4971548;28;92710;-70
2023/04/05 11:30:02;;;;;;;4.97;2.60;;;13.40;42.70;;;;;;4964110;28;92788;-70
2023/04/05 11:32:42;;;;;;;8.25;2.42;;;13.50;42.10;;;;;;4991730;28;92546;-70
2023/04/05 11:35:13;;;;;;;10.40;2.63;;;13.60;42.60;;;;;;4956979;28;92151;-71
2023/04/05 11:37:54;;;;;;;5.75;2.70;;;13.60;44.30;;;;;;4963428;28;93421;-70
2023/04/05 11:40:39;;;;;;;4.25;2.00;;;13.60;39.10;;;;;;4962984;28;93108;-71
2023/04/05 11:43:06;;;;;;;5.75;2.13;;;13.50;41.50;;;;;;4976058;28;92580;-71
2023/04/05 11:45:35;;;;;;;4.45;2.13;;;13.30;41.10;;;;;;4986358;28;92423;-70
2023/04/05 11:48:08;;;;;;;10.90;3.50;;;13.20;40.40;;;;;;4974637;28;94209;-70
2023/04/05 11:50:40;;;;;;;5.43;2.30;;;13.10;43.50;;;;;;4972388;28;93753;-70
2023/04/05 11:53:13;;;;;;;4.95;2.03;;;13.30;41.00;;;;;;4982652;28;92476;-71
2023/04/05 11:55:45;;;;;;;5.20;2.50;;;13.30;38.90;;;;;;4974173;28;92647;-70
2023/04/05 11:58:15;;;;;;;6.70;2.50;;;13.40;41.30;;;;;;4977157;28;92779;-71
2023/04/05 12:00:42;;;;;;;5.35;2.40;;;13.40;43.50;;;;;;4975435;28;92887;-71
2023/04/05 12:03:15;;;;;;;5.63;2.30;;;13.30;38.80;;;;;;4985842;28;92572;-70
2023/04/05 12:05:49;;;;;;;5.47;2.47;;;13.20;44.00;;;;;;4997317;28;91716;-70
2023/04/05 12:08:15;;;;;;;4.75;1.92;;;13.20;40.00;;;;;;4978703;28;92937;-70
2023/04/05 12:10:41;;;;;;;6.10;2.17;;;12.90;37.80;;;;;;4995595;28;93038;-70
2023/04/05 12:13:06;;;;;;;4.97;2.25;;;12.60;42.80;;;;;;4981191;28;94264;-71
2023/04/05 12:15:39;;;;;;;7.90;2.60;;;12.70;40.10;;;;;;4985479;28;92497;-70
2023/04/05 12:18:12;;;;;;;4.15;1.80;;;12.70;42.60;;;;;;4996101;28;93194;-70
2023/04/05 12:20:38;;;;;;;5.78;2.10;;;12.80;41.90;;;;;;4995824;28;92936;-70
2023/04/05 12:23:04;;;;;;;4.28;2.17;;;12.80;39.90;;;;;;4989134;28;92713;-70
2023/04/05 12:25:31;;;;;;;6.03;1.75;;;12.60;37.80;;;;;;4977793;28;92608;-70
2023/04/05 12:28:03;;;;;;;4.68;2.10;;;12.50;38.10;;;;;;4985471;28;92636;-71
2023/04/05 12:30:35;;;;;;;6.18;1.80;;;12.60;43.40;;;;;;4996159;28;92805;-70
2023/04/05 12:33:08;;;;;;;6.05;2.33;;;12.70;40.60;;;;;;4974485;28;92142;-71
2023/04/05 12:35:34;;;;;;;3.90;1.38;;;12.80;41.20;;;;;;4975765;28;92502;-71
2023/04/05 12:38:06;;;;;;;4.68;1.48;;;12.90;42.10;;;;;;4974438;28;93638;-70
2023/04/05 12:40:36;;;;;;;5.93;1.83;;;12.60;36.10;;;;;;4975920;28;94468;-71
2023/04/05 12:43:04;;;;;;;3.60;1.85;;;12.50;38.70;;;;;;4975838;28;92804;-70
2023/04/05 12:45:38;;;;;;;6.50;1.80;;;12.40;42.00;;;;;;4975609;28;92895;-70
2023/04/05 12:48:06;;;;;;;6.03;1.80;;;12.50;42.10;;;;;;4972690;28;93961;-70
2023/04/05 12:50:32;;;;;;;7.78;2.00;;;12.70;41.20;;;;;;4969231;28;92883;-70
2023/04/05 12:53:00;;;;;;;5.68;2.08;;;12.70;39.40;;;;;;4976012;28;92408;-70
2023/04/05 12:55:27;;;;;;;5.07;1.80;;;12.70;41.80;;;;;;4982538;28;91992;-70
2023/04/05 12:58:00;;;;;;;5.30;1.70;;;12.80;39.20;;;;;;4964171;28;93161;-71